createdAt,value
2018-02-12T00:00:00.159Z,81.91
2018-02-12T00:01:00.161Z,81.34
2018-02-12T00:02:00.159Z,81.62
2018-02-12T00:03:00.164Z,81.81
2018-02-12T00:04:00.161Z,81.81
2018-02-12T00:05:00.170Z,81.15
2018-02-12T00:06:00.172Z,80.87
2018-02-12T00:07:00.169Z,80.30
2018-02-12T00:08:00.172Z,79.74
2018-02-12T00:09:00.180Z,80.40
2018-02-12T00:10:00.182Z,81.24
2018-02-12T00:11:00.184Z,81.34
2018-02-12T00:12:00.188Z,81.53
2018-02-12T00:13:00.192Z,81.34
2018-02-12T00:14:00.191Z,81.53
2018-02-12T00:15:00.192Z,81.24
2018-02-12T00:16:00.194Z,81.43
2018-02-12T00:17:00.194Z,80.77
2018-02-12T00:18:00.226Z,80.87
2018-02-12T00:19:00.204Z,81.91
2018-02-12T00:20:00.206Z,81.72
2018-02-12T00:21:00.204Z,81.43
2018-02-12T00:22:00.207Z,81.53
2018-02-12T00:23:00.213Z,81.53
2018-02-12T00:24:00.215Z,82.47
2018-02-12T00:25:00.218Z,81.91
2018-02-12T00:26:00.222Z,81.53
2018-02-12T00:27:00.218Z,81.53
2018-02-12T00:28:00.227Z,81.72
2018-02-12T00:29:00.223Z,81.24
2018-02-12T00:30:00.231Z,81.15
2018-02-12T00:31:00.234Z,80.96
2018-02-12T00:32:00.233Z,81.53
2018-02-12T00:33:00.234Z,81.15
2018-02-12T00:34:00.241Z,80.68
2018-02-12T00:35:00.238Z,79.55
2018-02-12T00:36:00.241Z,78.70
2018-02-12T00:37:00.243Z,79.08
2018-02-12T00:38:00.246Z,79.08
2018-02-12T00:39:00.247Z,78.98
2018-02-12T00:40:00.251Z,79.36
2018-02-12T00:41:00.259Z,79.27
2018-02-12T00:42:00.262Z,79.46
2018-02-12T00:43:00.256Z,79.64
2018-02-12T00:44:00.265Z,78.60
2018-02-12T00:45:00.263Z,78.60
2018-02-12T00:46:00.270Z,77.94
2018-02-12T00:47:00.269Z,77.28
2018-02-12T00:48:00.274Z,76.90
2018-02-12T00:49:00.272Z,77.37
2018-02-12T00:50:00.281Z,77.94
2018-02-12T00:51:00.276Z,77.85
2018-02-12T00:52:00.284Z,78.42
2018-02-12T00:53:00.281Z,78.32
2018-02-12T00:54:00.288Z,78.51
2018-02-12T00:55:00.293Z,77.56
2018-02-12T00:56:00.295Z,78.04
2018-02-12T00:57:00.295Z,77.66
2018-02-12T00:58:00.294Z,78.51
2018-02-12T00:59:00.300Z,78.70
2018-02-12T01:00:00.303Z,78.60
2018-02-12T01:01:00.300Z,78.79
2018-02-12T01:02:00.303Z,78.98
2018-02-12T01:03:00.305Z,79.27
2018-02-12T01:04:00.306Z,79.08
2018-02-12T01:05:00.315Z,79.08
2018-02-12T01:06:00.317Z,78.32
2018-02-12T01:07:00.318Z,79.08
2018-02-12T01:08:00.316Z,78.98
2018-02-12T01:09:00.317Z,78.70
2018-02-12T01:10:00.327Z,78.79
2018-02-12T01:11:00.323Z,78.89
2018-02-12T01:12:00.331Z,78.51
2018-02-12T01:13:00.329Z,77.85
2018-02-12T01:14:00.335Z,78.51
2018-02-12T01:15:00.332Z,77.75
2018-02-12T01:16:00.334Z,78.42
2018-02-12T01:17:00.345Z,78.32
2018-02-12T01:18:00.347Z,78.04
2018-02-12T01:19:00.341Z,78.13
2018-02-12T01:20:00.400Z,77.85
2018-02-12T01:21:00.351Z,77.66
2018-02-12T01:22:00.355Z,77.75
2018-02-12T01:23:00.352Z,77.19
2018-02-12T01:24:00.360Z,77.09
2018-02-12T01:25:00.366Z,76.72
2018-02-12T01:26:00.359Z,76.53
2018-02-12T01:27:00.367Z,76.81
2018-02-12T01:28:00.370Z,77.09
2018-02-12T01:29:00.367Z,77.66
2018-02-12T01:30:00.376Z,77.00
2018-02-12T01:31:00.377Z,77.09
2018-02-12T01:32:00.374Z,75.87
2018-02-12T01:33:00.377Z,74.55
2018-02-12T01:34:00.378Z,74.36
2018-02-12T01:35:00.381Z,74.26
2018-02-12T01:36:00.389Z,74.07
2018-02-12T01:37:00.390Z,73.98
2018-02-12T01:38:00.393Z,74.92
2018-02-12T01:39:00.418Z,75.40
2018-02-12T01:40:00.399Z,75.87
2018-02-12T01:41:00.401Z,75.59
2018-02-12T01:42:00.397Z,75.68
2018-02-12T01:43:00.400Z,75.30
2018-02-12T01:44:00.402Z,74.92
2018-02-12T01:45:00.405Z,75.11
2018-02-12T01:46:00.413Z,74.74
2018-02-12T01:47:00.414Z,75.02
2018-02-12T01:48:00.417Z,74.92
2018-02-12T01:49:00.413Z,74.55
2018-02-12T01:50:00.420Z,74.74
2018-02-12T01:51:00.417Z,74.26
2018-02-12T01:52:00.473Z,74.55
2018-02-12T01:53:00.429Z,74.26
2018-02-12T01:54:00.426Z,74.26
2018-02-12T01:55:00.428Z,74.07
2018-02-12T01:56:00.430Z,73.88
2018-02-12T01:57:00.432Z,73.79
2018-02-12T01:58:00.434Z,74.07
2018-02-12T01:59:00.440Z,73.79
2018-02-12T02:00:00.446Z,74.04
2018-02-12T02:01:00.448Z,74.60
2018-02-12T02:02:00.444Z,74.51
2018-02-12T02:03:00.451Z,74.60
2018-02-12T02:04:00.446Z,74.69
2018-02-12T02:05:00.449Z,74.69
2018-02-12T02:06:00.452Z,74.22
2018-02-12T02:07:00.460Z,74.60
2018-02-12T02:08:00.460Z,74.98
2018-02-12T02:09:00.465Z,74.88
2018-02-12T02:10:00.467Z,75.07
2018-02-12T02:11:00.462Z,75.73
2018-02-12T02:12:00.464Z,75.64
2018-02-12T02:13:00.472Z,75.64
2018-02-12T02:14:00.473Z,76.30
2018-02-12T02:15:00.476Z,76.11
2018-02-12T02:16:00.477Z,76.30
2018-02-12T02:17:00.476Z,77.06
2018-02-12T02:18:00.476Z,77.34
2018-02-12T02:19:00.479Z,76.40
2018-02-12T02:20:00.489Z,77.15
2018-02-12T02:21:00.602Z,77.91
2018-02-12T02:22:00.494Z,77.72
2018-02-12T02:23:00.496Z,78.66
2018-02-12T02:24:00.538Z,79.13
2018-02-12T02:25:00.504Z,79.22
2018-02-12T02:26:00.493Z,79.41
2018-02-12T02:27:00.500Z,79.03
2018-02-12T02:28:00.498Z,79.41
2018-02-12T02:29:00.534Z,79.32
2018-02-12T02:30:00.502Z,79.13
2018-02-12T02:31:00.504Z,79.13
2018-02-12T02:32:00.511Z,79.13
2018-02-12T02:33:00.509Z,78.85
2018-02-12T02:34:00.515Z,78.75
2018-02-12T02:35:00.512Z,78.47
2018-02-12T02:36:00.519Z,77.62
2018-02-12T02:37:00.525Z,78.38
2018-02-12T02:38:00.520Z,78.00
2018-02-12T02:39:00.519Z,78.00
2018-02-12T02:40:00.523Z,77.06
2018-02-12T02:41:00.529Z,76.58
2018-02-12T02:42:00.529Z,76.49
2018-02-12T02:43:00.533Z,76.49
2018-02-12T02:44:00.530Z,76.02
2018-02-12T02:45:00.545Z,75.64
2018-02-12T02:46:00.535Z,74.79
2018-02-12T02:47:00.535Z,75.26
2018-02-12T02:48:00.544Z,74.98
2018-02-12T02:49:00.547Z,73.94
2018-02-12T02:50:00.556Z,74.13
2018-02-12T02:51:00.549Z,74.60
2018-02-12T02:52:00.546Z,74.69
2018-02-12T02:53:00.665Z,74.79
2018-02-12T02:54:00.566Z,74.88
2018-02-12T02:55:00.552Z,74.98
2018-02-12T02:56:00.556Z,73.75
2018-02-12T02:57:00.562Z,73.57
2018-02-12T02:58:00.571Z,73.66
2018-02-12T02:59:00.613Z,73.75
2018-02-12T03:00:00.561Z,73.75
2018-02-12T03:01:00.569Z,72.81
2018-02-12T03:02:00.568Z,72.72
2018-02-12T03:03:00.573Z,72.91
2018-02-12T03:04:00.576Z,72.62
2018-02-12T03:05:00.576Z,73.13
2018-02-12T03:06:00.581Z,72.25
2018-02-12T03:07:00.574Z,72.19
2018-02-12T03:08:00.577Z,71.87
2018-02-12T03:09:00.582Z,71.77
2018-02-12T03:10:00.580Z,72.19
2018-02-12T03:11:00.588Z,72.53
2018-02-12T03:12:00.592Z,72.53
2018-02-12T03:13:00.588Z,72.81
2018-02-12T03:14:00.593Z,73.00
2018-02-12T03:15:00.600Z,73.85
2018-02-12T03:16:00.593Z,74.32
2018-02-12T03:17:00.603Z,74.22
2018-02-12T03:18:00.597Z,74.04
2018-02-12T03:19:00.607Z,74.69
2018-02-12T03:20:00.600Z,74.69
2018-02-12T03:21:00.603Z,74.79
2018-02-12T03:22:00.613Z,74.69
2018-02-12T03:23:00.607Z,75.45
2018-02-12T03:24:00.615Z,75.64
2018-02-12T03:25:00.613Z,75.73
2018-02-12T03:26:00.619Z,76.40
2018-02-12T03:27:00.615Z,77.06
2018-02-12T03:28:00.617Z,78.09
2018-02-12T03:29:00.627Z,78.47
2018-02-12T03:30:00.627Z,79.69
2018-02-12T03:31:00.636Z,81.40
2018-02-12T03:32:00.629Z,82.71
2018-02-12T03:33:00.630Z,83.47
2018-02-12T03:34:00.636Z,83.94
2018-02-12T03:35:00.630Z,84.32
2018-02-12T03:36:00.632Z,84.22
2018-02-12T03:37:00.635Z,84.03
2018-02-12T03:38:00.643Z,84.60
2018-02-12T03:39:00.638Z,84.51
2018-02-12T03:40:00.638Z,84.03
2018-02-12T03:41:00.643Z,84.13
2018-02-12T03:42:00.645Z,84.41
2018-02-12T03:43:00.660Z,84.60
2018-02-12T03:44:00.645Z,84.79
2018-02-12T03:45:00.649Z,85.17
2018-02-12T03:46:00.657Z,85.36
2018-02-12T03:47:00.651Z,85.64
2018-02-12T03:48:00.654Z,86.21
2018-02-12T03:49:00.656Z,85.83
2018-02-12T03:50:00.657Z,86.11
2018-02-12T03:51:00.658Z,85.64
2018-02-12T03:52:00.660Z,85.73
2018-02-12T03:53:00.662Z,85.45
2018-02-12T03:54:00.675Z,85.45
2018-02-12T03:55:00.672Z,85.36
2018-02-12T03:56:00.673Z,85.64
2018-02-12T03:57:00.668Z,85.64
2018-02-12T03:58:00.671Z,85.54
2018-02-12T03:59:00.677Z,85.83
2018-02-12T04:00:00.678Z,85.36
2018-02-12T04:01:00.678Z,85.73
2018-02-12T04:02:00.676Z,85.83
2018-02-12T04:03:00.681Z,85.83
2018-02-12T04:04:00.684Z,85.83
2018-02-12T04:05:00.687Z,85.92
2018-02-12T04:06:00.688Z,86.77
2018-02-12T04:07:00.683Z,86.87
2018-02-12T04:08:00.684Z,86.68
2018-02-12T04:09:00.690Z,87.24
2018-02-12T04:10:00.686Z,87.34
2018-02-12T04:11:00.695Z,87.43
2018-02-12T04:12:00.690Z,87.71
2018-02-12T04:13:00.691Z,87.62
2018-02-12T04:14:00.692Z,87.71
2018-02-12T04:15:00.693Z,87.52
2018-02-12T04:16:00.695Z,87.99
2018-02-12T04:17:00.696Z,88.09
2018-02-12T04:18:00.698Z,88.37
2018-02-12T04:19:00.704Z,87.71
2018-02-12T04:20:00.704Z,88.37
2018-02-12T04:21:00.701Z,88.47
2018-02-12T04:22:00.708Z,88.18
2018-02-12T04:23:00.703Z,88.65
2018-02-12T04:24:00.705Z,88.37
2018-02-12T04:25:00.712Z,88.28
2018-02-12T04:26:00.714Z,87.81
2018-02-12T04:27:00.714Z,87.62
2018-02-12T04:28:00.711Z,87.43
2018-02-12T04:29:00.712Z,88.28
2018-02-12T04:30:00.721Z,88.65
2018-02-12T04:31:00.720Z,88.18
2018-02-12T04:32:00.716Z,88.65
2018-02-12T04:33:00.722Z,89.46
2018-02-12T04:34:00.720Z,89.37
2018-02-12T04:35:00.722Z,90.03
2018-02-12T04:36:00.722Z,90.41
2018-02-12T04:37:00.728Z,90.22
2018-02-12T04:38:00.729Z,90.12
2018-02-12T04:39:00.724Z,90.78
2018-02-12T04:40:00.729Z,91.16
2018-02-12T04:41:00.729Z,91.82
2018-02-12T04:42:00.729Z,92.00
2018-02-12T04:43:00.729Z,92.57
2018-02-12T04:44:00.735Z,92.19
2018-02-12T04:45:00.736Z,92.10
2018-02-12T04:46:00.732Z,91.63
2018-02-12T04:47:00.740Z,92.00
2018-02-12T04:48:00.739Z,91.91
2018-02-12T04:49:00.742Z,91.82
2018-02-12T04:50:00.744Z,91.72
2018-02-12T04:51:00.738Z,91.06
2018-02-12T04:52:00.739Z,90.59
2018-02-12T04:53:00.746Z,89.13
2018-02-12T04:54:00.744Z,88.75
2018-02-12T04:55:00.749Z,87.99
2018-02-12T04:56:00.747Z,86.87
2018-02-12T04:57:00.751Z,85.54
2018-02-12T04:58:00.746Z,85.45
2018-02-12T04:59:00.746Z,84.60
2018-02-12T05:00:00.753Z,84.69
2018-02-12T05:01:00.756Z,84.41
2018-02-12T05:02:00.753Z,84.98
2018-02-12T05:03:00.751Z,84.88
2018-02-12T05:04:00.759Z,85.17
2018-02-12T05:05:00.754Z,85.07
2018-02-12T05:06:00.778Z,84.47
2018-02-12T05:07:00.756Z,83.94
2018-02-12T05:08:00.757Z,84.41
2018-02-12T05:09:00.764Z,84.18
2018-02-12T05:10:00.765Z,84.37
2018-02-12T05:11:00.766Z,84.37
2018-02-12T05:12:00.769Z,84.75
2018-02-12T05:13:00.764Z,85.13
2018-02-12T05:14:00.764Z,84.75
2018-02-12T05:15:00.764Z,84.37
2018-02-12T05:16:00.767Z,84.37
2018-02-12T05:17:00.774Z,85.03
2018-02-12T05:18:00.774Z,85.45
2018-02-12T05:19:00.768Z,85.45
2018-02-12T05:20:00.770Z,84.98
2018-02-12T05:21:00.780Z,84.79
2018-02-12T05:22:00.780Z,85.07
2018-02-12T05:23:00.772Z,84.75
2018-02-12T05:24:00.774Z,85.22
2018-02-12T05:25:00.781Z,84.60
2018-02-12T05:26:00.775Z,85.26
2018-02-12T05:27:00.777Z,84.84
2018-02-12T05:28:00.777Z,84.84
2018-02-12T05:29:00.779Z,84.75
2018-02-12T05:30:00.785Z,84.84
2018-02-12T05:31:00.781Z,85.41
2018-02-12T05:32:00.786Z,85.13
2018-02-12T05:33:00.788Z,85.78
2018-02-12T05:34:00.788Z,85.69
2018-02-12T05:35:00.808Z,85.78
2018-02-12T05:36:00.789Z,85.69
2018-02-12T05:37:00.784Z,86.54
2018-02-12T05:38:00.792Z,87.29
2018-02-12T05:39:00.793Z,88.99
2018-02-12T05:40:00.794Z,90.31
2018-02-12T05:41:00.795Z,90.69
2018-02-12T05:42:00.796Z,91.63
2018-02-12T05:43:00.789Z,92.10
2018-02-12T05:44:00.790Z,92.47
2018-02-12T05:45:00.799Z,93.13
2018-02-12T05:46:00.799Z,94.55
2018-02-12T05:47:00.799Z,95.31
2018-02-12T05:48:00.794Z,95.68
2018-02-12T05:49:00.799Z,95.87
2018-02-12T05:50:00.801Z,95.31
2018-02-12T05:51:00.794Z,95.68
2018-02-12T05:52:00.801Z,94.65
2018-02-12T05:53:00.795Z,94.46
2018-02-12T05:54:00.799Z,93.89
2018-02-12T05:55:00.797Z,93.89
2018-02-12T05:56:00.799Z,93.42
2018-02-12T05:57:00.797Z,93.32
2018-02-12T05:58:00.804Z,94.46
2018-02-12T05:59:00.798Z,95.21
2018-02-12T06:00:00.805Z,96.44
2018-02-12T06:01:00.802Z,96.81
2018-02-12T06:02:00.806Z,96.62
2018-02-12T06:03:00.807Z,96.81
2018-02-12T06:04:00.803Z,96.72
2018-02-12T06:05:00.803Z,96.44
2018-02-12T06:06:00.804Z,96.34
2018-02-12T06:07:00.808Z,96.06
2018-02-12T06:08:00.809Z,95.12
2018-02-12T06:09:00.804Z,95.40
2018-02-12T06:10:00.804Z,94.83
2018-02-12T06:11:00.825Z,92.76
2018-02-12T06:12:00.809Z,92.85
2018-02-12T06:13:00.810Z,93.13
2018-02-12T06:14:00.808Z,93.32
2018-02-12T06:15:00.808Z,93.23
2018-02-12T06:16:00.813Z,93.61
2018-02-12T06:17:00.809Z,94.27
2018-02-12T06:18:00.813Z,94.93
2018-02-12T06:19:00.812Z,94.83
2018-02-12T06:20:00.814Z,95.40
2018-02-12T06:21:00.808Z,95.40
2018-02-12T06:22:00.813Z,95.59
2018-02-12T06:23:00.808Z,94.83
2018-02-12T06:24:00.815Z,94.55
2018-02-12T06:25:00.813Z,94.08
2018-02-12T06:26:00.810Z,93.98
2018-02-12T06:27:00.815Z,93.13
2018-02-12T06:28:00.814Z,92.47
2018-02-12T06:29:00.816Z,92.29
2018-02-12T06:30:00.811Z,91.82
2018-02-12T06:31:00.816Z,91.16
2018-02-12T06:32:00.810Z,90.50
2018-02-12T06:33:00.818Z,90.88
2018-02-12T06:34:00.818Z,91.25
2018-02-12T06:35:00.812Z,92.00
2018-02-12T06:36:00.862Z,92.57
2018-02-12T06:37:00.814Z,92.57
2018-02-12T06:38:00.814Z,93.89
2018-02-12T06:39:00.818Z,94.65
2018-02-12T06:40:00.820Z,94.83
2018-02-12T06:41:00.822Z,95.50
2018-02-12T06:42:00.817Z,96.25
2018-02-12T06:43:00.821Z,96.25
2018-02-12T06:44:00.823Z,95.68
2018-02-12T06:45:00.827Z,95.40
2018-02-12T06:46:00.823Z,94.65
2018-02-12T06:47:00.817Z,94.55
2018-02-12T06:48:00.817Z,94.74
2018-02-12T06:49:00.824Z,94.08
2018-02-12T06:50:00.824Z,94.55
2018-02-12T06:51:00.823Z,94.83
2018-02-12T06:52:00.827Z,93.61
2018-02-12T06:53:00.822Z,93.61
2018-02-12T06:54:00.825Z,93.98
2018-02-12T06:55:00.823Z,92.85
2018-02-12T06:56:00.821Z,92.47
2018-02-12T06:57:00.826Z,92.38
2018-02-12T06:58:00.829Z,92.47
2018-02-12T06:59:00.828Z,92.19
2018-02-12T07:00:00.823Z,92.00
2018-02-12T07:01:00.824Z,91.91
2018-02-12T07:02:00.832Z,91.35
2018-02-12T07:03:00.829Z,91.82
2018-02-12T07:04:00.830Z,92.00
2018-02-12T07:05:00.840Z,91.44
2018-02-12T07:06:00.926Z,91.35
2018-02-12T07:07:00.902Z,91.35
2018-02-12T07:08:00.935Z,91.06
2018-02-12T07:09:00.886Z,91.44
2018-02-12T07:10:00.930Z,91.16
2018-02-12T07:11:00.901Z,90.22
2018-02-12T07:12:00.884Z,90.22
2018-02-12T07:13:00.929Z,90.31
2018-02-12T07:14:00.936Z,91.44
2018-02-12T07:15:00.987Z,91.35
2018-02-12T07:16:00.931Z,91.63
2018-02-12T07:17:00.893Z,92.10
2018-02-12T07:18:00.910Z,92.10
2018-02-12T07:19:00.935Z,92.10
2018-02-12T07:20:00.926Z,92.00
2018-02-12T07:21:00.959Z,92.10
2018-02-12T07:22:00.897Z,91.53
2018-02-12T07:23:00.842Z,91.25
2018-02-12T07:24:00.843Z,90.59
2018-02-12T07:25:00.840Z,90.78
2018-02-12T07:26:00.839Z,90.59
2018-02-12T07:27:00.844Z,90.78
2018-02-12T07:28:00.845Z,90.78
2018-02-12T07:29:00.840Z,91.44
2018-02-12T07:30:00.851Z,92.47
2018-02-12T07:31:00.848Z,92.00
2018-02-12T07:32:00.843Z,92.38
2018-02-12T07:33:00.849Z,92.10
2018-02-12T07:34:00.846Z,91.63
2018-02-12T07:35:00.845Z,91.91
2018-02-12T07:36:00.851Z,91.53
2018-02-12T07:37:00.853Z,91.16
2018-02-12T07:38:00.850Z,90.97
2018-02-12T07:39:00.846Z,90.69
2018-02-12T07:40:00.857Z,90.88
2018-02-12T07:41:00.854Z,90.31
2018-02-12T07:42:00.851Z,90.59
2018-02-12T07:43:00.850Z,90.12
2018-02-12T07:44:00.857Z,90.03
2018-02-12T07:45:00.857Z,90.22
2018-02-12T07:46:00.863Z,90.12
2018-02-12T07:47:00.859Z,89.56
2018-02-12T07:48:00.860Z,89.65
2018-02-12T07:49:00.857Z,89.65
2018-02-12T07:50:00.862Z,89.56
2018-02-12T07:51:00.865Z,89.65
2018-02-12T07:52:00.861Z,89.93
2018-02-12T07:53:00.862Z,90.22
2018-02-12T07:54:00.860Z,90.78
2018-02-12T07:55:00.866Z,91.16
2018-02-12T07:56:00.859Z,91.25
2018-02-12T07:57:00.861Z,91.16
2018-02-12T07:58:00.867Z,91.35
2018-02-12T07:59:00.864Z,91.82
2018-02-12T08:00:00.868Z,92.10
2018-02-12T08:01:00.869Z,92.38
2018-02-12T08:02:00.873Z,92.47
2018-02-12T08:03:00.872Z,92.85
2018-02-12T08:04:00.866Z,93.04
2018-02-12T08:05:00.867Z,92.38
2018-02-12T08:06:00.873Z,91.82
2018-02-12T08:07:00.868Z,91.63
2018-02-12T08:08:00.873Z,90.88
2018-02-12T08:09:00.876Z,90.50
2018-02-12T08:10:00.876Z,90.59
2018-02-12T08:11:00.869Z,91.16
2018-02-12T08:12:00.878Z,92.10
2018-02-12T08:13:00.878Z,92.10
2018-02-12T08:14:00.874Z,92.10
2018-02-12T08:15:00.873Z,91.82
2018-02-12T08:16:00.889Z,91.16
2018-02-12T08:17:00.875Z,89.93
2018-02-12T08:18:00.881Z,89.27
2018-02-12T08:19:00.882Z,89.13
2018-02-12T08:20:00.877Z,88.18
2018-02-12T08:21:00.881Z,87.81
2018-02-12T08:22:00.884Z,87.38
2018-02-12T08:23:00.884Z,87.67
2018-02-12T08:24:00.881Z,88.61
2018-02-12T08:25:00.889Z,86.91
2018-02-12T08:26:00.888Z,86.72
2018-02-12T08:27:00.890Z,86.54
2018-02-12T08:28:00.886Z,86.54
2018-02-12T08:29:00.891Z,86.35
2018-02-12T08:30:00.893Z,87.19
2018-02-12T08:31:00.894Z,87.19
2018-02-12T08:32:00.889Z,87.29
2018-02-12T08:33:00.895Z,87.86
2018-02-12T08:34:00.900Z,87.57
2018-02-12T08:35:00.898Z,86.63
2018-02-12T08:36:00.899Z,86.54
2018-02-12T08:37:00.901Z,86.07
2018-02-12T08:38:00.913Z,85.60
2018-02-12T08:39:00.895Z,84.56
2018-02-12T08:40:00.905Z,84.09
2018-02-12T08:41:00.919Z,83.05
2018-02-12T08:42:00.900Z,82.86
2018-02-12T08:43:00.898Z,82.58
2018-02-12T08:44:00.907Z,81.63
2018-02-12T08:45:00.907Z,81.21
2018-02-12T08:46:00.903Z,79.22
2018-02-12T08:47:00.903Z,79.22
2018-02-12T08:48:00.907Z,79.13
2018-02-12T08:49:00.905Z,78.00
2018-02-12T08:50:00.910Z,77.15
2018-02-12T08:51:00.915Z,75.92
2018-02-12T08:52:00.909Z,75.92
2018-02-12T08:53:00.912Z,75.83
2018-02-12T08:54:00.918Z,75.92
2018-02-12T08:55:00.918Z,75.83
2018-02-12T08:56:00.914Z,75.64
2018-02-12T08:57:00.915Z,74.22
2018-02-12T08:58:00.917Z,74.04
2018-02-12T08:59:00.917Z,73.75
2018-02-12T09:00:00.925Z,74.04
2018-02-12T09:01:00.927Z,74.69
2018-02-12T09:02:00.924Z,74.79
2018-02-12T09:03:00.923Z,74.69
2018-02-12T09:04:00.924Z,74.60
2018-02-12T09:05:00.930Z,74.32
2018-02-12T09:06:00.934Z,73.57
2018-02-12T09:07:00.933Z,73.85
2018-02-12T09:08:00.938Z,72.81
2018-02-12T09:09:00.935Z,72.25
2018-02-12T09:10:00.933Z,72.72
2018-02-12T09:11:00.987Z,73.75
2018-02-12T09:12:00.942Z,74.51
2018-02-12T09:13:00.937Z,75.42
2018-02-12T09:14:00.955Z,76.45
2018-02-12T09:15:00.947Z,77.11
2018-02-12T09:16:00.943Z,77.58
2018-02-12T09:17:00.950Z,77.86
2018-02-12T09:18:00.952Z,77.96
2018-02-12T09:19:00.953Z,76.26
2018-02-12T09:20:00.952Z,76.17
2018-02-12T09:21:00.949Z,76.40
2018-02-12T09:22:00.951Z,75.13
2018-02-12T09:23:00.956Z,75.32
2018-02-12T09:24:00.952Z,75.51
2018-02-12T09:25:00.964Z,75.79
2018-02-12T09:26:00.975Z,76.40
2018-02-12T09:27:00.963Z,75.54
2018-02-12T09:28:00.963Z,73.75
2018-02-12T09:29:00.965Z,72.81
2018-02-12T09:30:00.968Z,71.73
2018-02-12T09:31:00.967Z,72.81
2018-02-12T09:32:00.971Z,73.28
2018-02-12T09:33:00.966Z,71.87
2018-02-12T09:34:00.968Z,71.40
2018-02-12T09:35:00.973Z,70.92
2018-02-12T09:36:00.974Z,70.36
2018-02-12T09:37:00.978Z,68.57
2018-02-12T09:38:00.974Z,67.81
2018-02-12T09:39:00.979Z,66.68
2018-02-12T09:40:00.975Z,67.25
2018-02-12T09:41:00.976Z,67.19
2018-02-12T09:42:00.985Z,67.09
2018-02-12T09:43:00.980Z,66.15
2018-02-12T09:44:00.982Z,65.96
2018-02-12T09:45:00.989Z,64.61
2018-02-12T09:46:00.993Z,64.61
2018-02-12T09:47:00.993Z,64.61
2018-02-12T09:48:00.990Z,65.26
2018-02-12T09:49:00.994Z,65.26
2018-02-12T09:50:00.999Z,65.92
2018-02-12T09:51:01.001Z,65.73
2018-02-12T09:52:00.998Z,65.36
2018-02-12T09:53:01.003Z,65.86
2018-02-12T09:54:01.002Z,64.61
2018-02-12T09:55:01.004Z,64.83
2018-02-12T09:56:01.013Z,64.92
2018-02-12T09:57:01.016Z,64.26
2018-02-12T09:58:01.012Z,64.17
2018-02-12T09:59:01.011Z,64.54
2018-02-12T10:00:01.020Z,63.89
2018-02-12T10:01:01.022Z,64.07
2018-02-12T10:02:01.020Z,64.45
2018-02-12T10:03:01.027Z,62.56
2018-02-12T10:04:01.030Z,59.35
2018-02-12T10:05:01.032Z,59.99
2018-02-12T10:06:01.029Z,62.15
2018-02-12T10:07:01.036Z,64.98
2018-02-12T10:08:01.033Z,66.68
2018-02-12T10:09:01.038Z,68.10
2018-02-12T10:10:01.046Z,68.10
2018-02-12T10:11:01.041Z,67.62
2018-02-12T10:12:01.049Z,64.89
2018-02-12T10:13:01.048Z,63.66
2018-02-12T10:14:01.048Z,63.76
2018-02-12T10:15:01.053Z,64.26
2018-02-12T10:16:01.058Z,64.54
2018-02-12T10:17:01.061Z,65.30
2018-02-12T10:18:01.058Z,64.79
2018-02-12T10:19:01.065Z,66.21
2018-02-12T10:20:01.065Z,66.49
2018-02-12T10:21:01.070Z,67.25
2018-02-12T10:22:01.072Z,68.66
2018-02-12T10:23:03.973Z,70.73
2018-02-12T10:24:01.071Z,71.87
2018-02-12T10:25:01.074Z,72.72
2018-02-12T10:26:01.077Z,73.43
2018-02-12T10:27:01.083Z,75.13
2018-02-12T10:28:01.085Z,76.54
2018-02-12T10:29:01.082Z,76.26
2018-02-12T10:30:01.147Z,76.49
2018-02-12T10:31:01.093Z,75.83
2018-02-12T10:32:01.089Z,75.26
2018-02-12T10:33:01.091Z,74.98
2018-02-12T10:34:01.098Z,75.26
2018-02-12T10:35:01.100Z,75.07
2018-02-12T10:36:01.099Z,74.98
2018-02-12T10:37:01.104Z,74.60
2018-02-12T10:38:01.106Z,74.69
2018-02-12T10:39:01.102Z,74.69
2018-02-12T10:40:01.103Z,74.88
2018-02-12T10:41:01.116Z,74.79
2018-02-12T10:42:01.116Z,75.45
2018-02-12T10:43:01.120Z,75.30
2018-02-12T10:44:01.113Z,75.30
2018-02-12T10:45:01.118Z,74.98
2018-02-12T10:46:01.118Z,74.79
2018-02-12T10:47:01.129Z,74.88
2018-02-12T10:48:01.128Z,74.98
2018-02-12T10:49:01.129Z,75.73
2018-02-12T10:50:01.131Z,76.11
2018-02-12T10:51:01.136Z,75.83
2018-02-12T10:52:01.135Z,74.98
2018-02-12T10:53:01.137Z,74.69
2018-02-12T10:54:01.140Z,74.79
2018-02-12T10:55:01.136Z,74.13
2018-02-12T10:56:01.142Z,73.00
2018-02-12T10:57:01.148Z,71.40
2018-02-12T10:58:01.147Z,69.35
2018-02-12T10:59:01.147Z,68.85
2018-02-12T11:00:01.211Z,69.17
2018-02-12T11:01:01.158Z,69.07
2018-02-12T11:02:01.164Z,68.04
2018-02-12T11:03:01.153Z,67.19
2018-02-12T11:04:01.164Z,67.00
2018-02-12T11:05:01.167Z,66.43
2018-02-12T11:06:01.173Z,65.17
2018-02-12T11:07:01.170Z,65.01
2018-02-12T11:08:01.172Z,65.83
2018-02-12T11:09:01.169Z,67.15
2018-02-12T11:10:01.175Z,69.42
2018-02-12T11:11:01.176Z,68.95
2018-02-12T11:12:01.182Z,68.76
2018-02-12T11:13:01.183Z,69.04
2018-02-12T11:14:01.183Z,68.85
2018-02-12T11:15:01.194Z,68.79
2018-02-12T11:16:01.194Z,67.38
2018-02-12T11:17:01.195Z,65.64
2018-02-12T11:18:01.197Z,67.15
2018-02-12T11:19:01.195Z,67.06
2018-02-12T11:20:01.196Z,68.00
2018-02-12T11:21:01.201Z,69.13
2018-02-12T11:22:01.209Z,69.04
2018-02-12T11:23:01.218Z,69.89
2018-02-12T11:24:01.215Z,68.29
2018-02-12T11:25:01.218Z,65.39
2018-02-12T11:26:01.219Z,62.28
2018-02-12T11:27:01.220Z,60.14
2018-02-12T11:28:01.218Z,58.69
2018-02-12T11:29:01.222Z,59.29
2018-02-12T11:30:01.225Z,57.21
2018-02-12T11:31:01.227Z,56.65
2018-02-12T11:32:01.320Z,57.59
2018-02-12T11:33:01.241Z,58.25
2018-02-12T11:34:01.238Z,58.60
2018-02-12T11:35:01.238Z,58.50
2018-02-12T11:36:01.243Z,58.03
2018-02-12T11:37:01.247Z,57.94
2018-02-12T11:38:01.247Z,58.53
2018-02-12T11:39:01.256Z,58.63
2018-02-12T11:40:01.264Z,57.12
2018-02-12T11:41:01.259Z,59.00
2018-02-12T11:42:01.269Z,59.95
2018-02-12T11:43:01.264Z,58.82
2018-02-12T11:44:01.276Z,56.65
2018-02-12T11:45:01.278Z,54.28
2018-02-12T11:46:01.297Z,54.00
2018-02-12T11:47:01.282Z,54.19
2018-02-12T11:48:01.294Z,54.57
2018-02-12T11:49:01.295Z,54.57
2018-02-12T11:50:01.295Z,54.57
2018-02-12T11:51:01.297Z,54.85
2018-02-12T11:52:01.301Z,56.24
2018-02-12T11:53:01.301Z,57.37
2018-02-12T11:54:01.318Z,57.75
2018-02-12T11:55:01.315Z,60.36
2018-02-12T11:56:01.321Z,64.14
2018-02-12T11:57:01.319Z,66.40
2018-02-12T11:58:01.326Z,69.89
2018-02-12T11:59:01.322Z,74.00
2018-02-12T12:00:01.330Z,78.05
2018-02-12T12:01:01.331Z,80.51
2018-02-12T12:02:01.334Z,81.92
2018-02-12T12:03:01.331Z,82.10
2018-02-12T12:04:01.341Z,80.88
2018-02-12T12:05:01.339Z,81.35
2018-02-12T12:06:01.346Z,82.29
2018-02-12T12:07:01.341Z,83.52
2018-02-12T12:08:01.347Z,83.80
2018-02-12T12:09:01.358Z,83.90
2018-02-12T12:10:01.349Z,84.09
2018-02-12T12:11:01.356Z,83.05
2018-02-12T12:12:01.352Z,83.43
2018-02-12T12:13:01.363Z,84.37
2018-02-12T12:14:01.361Z,84.94
2018-02-12T12:15:01.363Z,86.07
2018-02-12T12:16:01.368Z,86.35
2018-02-12T12:17:01.365Z,86.25
2018-02-12T12:18:01.367Z,86.16
2018-02-12T12:19:01.370Z,85.88
2018-02-12T12:20:01.370Z,86.49
2018-02-12T12:21:01.365Z,87.29
2018-02-12T12:22:01.368Z,87.29
2018-02-12T12:23:01.371Z,87.44
2018-02-12T12:24:01.368Z,88.10
2018-02-12T12:25:01.374Z,88.38
2018-02-12T12:26:01.376Z,88.66
2018-02-12T12:27:01.369Z,88.19
2018-02-12T12:28:01.377Z,88.10
2018-02-12T12:29:01.378Z,87.86
2018-02-12T12:30:01.378Z,87.38
2018-02-12T12:31:01.374Z,86.72
2018-02-12T12:32:01.382Z,85.60
2018-02-12T12:33:01.379Z,84.47
2018-02-12T12:34:01.377Z,83.14
2018-02-12T12:35:01.376Z,82.58
2018-02-12T12:36:01.383Z,82.01
2018-02-12T12:37:01.380Z,81.16
2018-02-12T12:38:01.386Z,80.79
2018-02-12T12:39:01.387Z,79.19
2018-02-12T12:40:01.386Z,79.66
2018-02-12T12:41:01.391Z,80.04
2018-02-12T12:42:01.388Z,79.56
2018-02-12T12:43:01.389Z,79.47
2018-02-12T12:44:01.389Z,79.09
2018-02-12T12:45:01.385Z,79.47
2018-02-12T12:46:01.391Z,79.00
2018-02-12T12:47:01.394Z,78.52
2018-02-12T12:48:01.393Z,76.77
2018-02-12T12:49:01.387Z,75.54
2018-02-12T12:50:01.397Z,75.83
2018-02-12T12:51:01.391Z,75.73
2018-02-12T12:52:01.397Z,73.66